Polis 9950 — SFC7700 — position and weather

sailwx.info

Track history (hours):
 
Tides and Currents Weather Stations Pressure Air Temp Water Temp Dewpoint Dewpoint Depression Visibility Wind Speed Wind Dir Waves Ship Positions

Polis 9950

Last reported at 2016-May-05 21:18 UTC. Time now 2016-May-06 03:31 UTC.
Position N 59°19' E 018°06'.

Length 16 m.

Type: Law enforcement. MMSI: 265565600.

Date/timePositionNaut miles runAvg speedWind from/ knotsBaromVisibWave heightAir tempDewpointWater temp
2016-May-05 21:18N 59°19' E 018°06'3 3.7
2016-May-05 20:33N 59°19' E 018°01'1010.1
2016-May-05 19:33N 59°25' E 017°44'0 0.2
2016-May-05 18:33N 59°25' E 017°44'1110.3
2016-May-05 17:32N 59°19' E 018°02'2 1.1
2016-May-05 15:21N 59°19' E 018°06'1 0.0
2016-May-04 06:32N 59°20' E 018°05'4 0.1
2016-May-02 15:21N 59°20' E 018°12'0 0.3
2016-May-02 14:25N 59°20' E 018°11'0 0.0
2016-May-02 07:16N 59°20' E 018°12'  
2016-Apr-29 21:06N 59°19' E 018°07'1 1.8
2016-Apr-29 20:26N 59°20' E 018°05'0 0.0
2016-Apr-29 19:24N 59°20' E 018°05'0 0.0
2016-Apr-29 18:32N 59°20' E 018°05'0 0.0
2016-Apr-29 17:33N 59°20' E 018°05'0 0.3
2016-Apr-29 16:31N 59°20' E 018°05'0 0.4
2016-Apr-29 15:33N 59°20' E 018°05'0 0.1
2016-Apr-29 14:33N 59°20' E 018°05'3 0.8
2016-Apr-29 11:25N 59°20' E 018°10'6 6.7
2016-Apr-29 10:31N 59°19' E 017°59'2 2.3
2016-Apr-29 09:33N 59°18' E 017°55'2 1.4
2016-Apr-29 08:09N 59°19' E 017°58'1 1.8
2016-Apr-29 07:33N 59°19' E 018°00'5 0.3
2016-Apr-28 13:24N 59°19' E 018°10'1 0.3
2016-Apr-28 09:04N 59°20' E 018°12'10 0.6
2016-Apr-27 15:24N 59°17' E 017°52'8 8.0
2016-Apr-27 14:27N 59°19' E 018°06'3 0.1
2016-Apr-26 16:18N 59°20' E 018°12'1 0.2
2016-Apr-26 13:28N 59°20' E 018°10'  
Track history (hours):
 
Tides and Currents Weather Stations Pressure Air Temp Water Temp Dewpoint Dewpoint Depression Visibility Wind Speed Wind Dir Waves Ship Positions

Polis 9950

Last reported at 2016-May-05 21:18 UTC. Time now 2016-May-06 03:31 UTC.
Position N 59°19' E 018°06'.

Length 16 m.

Type: Law enforcement. MMSI: 265565600.

Date/timePositionNaut miles runAvg speedWind from/ knotsBaromVisibWave heightAir tempDewpointWater temp
2016-May-05 21:18N 59°19' E 018°06'3 3.7
2016-May-05 20:33N 59°19' E 018°01'1010.1
2016-May-05 19:33N 59°25' E 017°44'0 0.2
2016-May-05 18:33N 59°25' E 017°44'1110.3
2016-May-05 17:32N 59°19' E 018°02'2 1.1
2016-May-05 15:21N 59°19' E 018°06'1 0.0
2016-May-04 06:32N 59°20' E 018°05'4 0.1
2016-May-02 15:21N 59°20' E 018°12'0 0.3
2016-May-02 14:25N 59°20' E 018°11'0 0.0
2016-May-02 07:16N 59°20' E 018°12'  
2016-Apr-29 21:06N 59°19' E 018°07'1 1.8
2016-Apr-29 20:26N 59°20' E 018°05'0 0.0
2016-Apr-29 19:24N 59°20' E 018°05'0 0.0
2016-Apr-29 18:32N 59°20' E 018°05'0 0.0
2016-Apr-29 17:33N 59°20' E 018°05'0 0.3
2016-Apr-29 16:31N 59°20' E 018°05'0 0.4
2016-Apr-29 15:33N 59°20' E 018°05'0 0.1
2016-Apr-29 14:33N 59°20' E 018°05'3 0.8
2016-Apr-29 11:25N 59°20' E 018°10'6 6.7
2016-Apr-29 10:31N 59°19' E 017°59'2 2.3
2016-Apr-29 09:33N 59°18' E 017°55'2 1.4
2016-Apr-29 08:09N 59°19' E 017°58'1 1.8
2016-Apr-29 07:33N 59°19' E 018°00'5 0.3
2016-Apr-28 13:24N 59°19' E 018°10'1 0.3
2016-Apr-28 09:04N 59°20' E 018°12'10 0.6
2016-Apr-27 15:24N 59°17' E 017°52'8 8.0
2016-Apr-27 14:27N 59°19' E 018°06'3 0.1
2016-Apr-26 16:18N 59°20' E 018°12'1 0.2
2016-Apr-26 13:28N 59°20' E 018°10'  

Dump ship's entire track history